X  Blizu METAR Podaci o vazduhoplovstvu        LGTS Thessaloniki Macedonia International
Temperatura
12°C Temperatura
12°C Tačka Rose
100% Vlaga



Vetar
3 M/S
6 MPS
9 KM/S
5 Čvorovi



250°
ZJZ
Trenutna situacija

Mostly Cloudy with Rain Pretežno oblačno , Kiša
Vazdušni pritisak 1011 (hPa) - 29.85 (inHg)
Vidljivost 4 (Milje) - 6 (km)
Aerodrom
Aerodromski kod. LGTS

Lokacija: Thessaloniki Macedonia International
Udaljenost: 85 (km)

Metar:
METAR LGTS 011720Z 25005KT 6000 RA SCT008 BKN030 12/12 Q1011 NOSIG

Vreme: 01-03-2024 19:20 EET